Time;durP1;ratioP1;P1;durP2;ratioP2;P2;SDS_P1;SDS_P2;PMS_P1;PMS_P2;Temp;Humidity;BMP_temperature;BMP_pressure;BME280_temperature;BME280_humidity;BME280_pressure;Samples;Min_cycle;Max_cycle;Signal;HPM_P1;HPM_P2
2021/04/29 08:41:11;;;;;;;11.75;10.48;;;;;;;10.16;63.67;97713.23;1847766;75;22668;-63
2021/04/29 08:43:44;;;;;;;19.55;8.93;;;;;;;10.16;63.63;97721.26;1818085;79;21528;-59
2021/04/29 08:46:13;;;;;;;17.82;10.00;;;;;;;10.25;63.35;97708.78;1818032;79;21441;-63
2021/04/29 08:48:43;;;;;;;15.28;9.20;;;;;;;10.37;63.53;97719.81;1817982;78;21544;-62
2021/04/29 08:51:12;;;;;;;12.25;8.00;;;;;;;10.56;63.01;97715.72;1786877;79;20872;-64
2021/04/29 08:53:42;;;;;;;9.25;8.35;;;;;;;10.69;62.69;97709.03;1818036;79;20931;-67
2021/04/29 08:56:10;;;;;;;14.00;8.93;;;;;;;10.76;62.14;97712.11;1818065;79;20930;-62
2021/04/29 08:58:41;;;;;;;10.85;8.58;;;;;;;10.80;61.95;97712.31;1787218;79;21358;-61
2021/04/29 09:01:10;;;;;;;15.93;13.78;;;;;;;10.80;61.86;97710.98;1817999;79;20915;-63
2021/04/29 09:03:40;;;;;;;17.57;14.50;;;;;;;10.76;61.93;97707.31;1818021;78;21077;-67
2021/04/29 09:06:09;;;;;;;12.28;9.45;;;;;;;10.69;61.91;97699.66;1818001;78;21326;-66
2021/04/29 09:08:38;;;;;;;13.70;9.28;;;;;;;10.65;62.24;97704.02;1818049;78;20899;-64
2021/04/29 09:11:17;;;;;;;12.13;8.75;;;;;;;10.69;61.95;97698.88;1818015;79;21324;-67
2021/04/29 09:14:02;;;;;;;13.50;8.75;;;;;;;10.63;61.72;97692.82;1817971;79;21144;-64
2021/04/29 09:16:43;;;;;;;12.70;9.17;;;;;;;10.57;61.98;97702.05;1818298;78;20925;-65
2021/04/29 09:19:23;;;;;;;23.77;13.43;;;;;;;10.59;62.29;97701.20;1818272;79;21585;-63
2021/04/29 09:21:54;;;;;;;18.98;15.70;;;;;;;10.70;62.68;97701.25;1817995;79;21013;-65
2021/04/29 09:24:38;;;;;;;16.00;10.53;;;;;;;10.91;62.25;97706.45;1818280;79;21366;-68
2021/04/29 09:27:12;;;;;;;20.13;13.67;;;;;;;11.13;61.93;97708.97;1818286;79;21006;-59
2021/04/29 09:29:57;;;;;;;55.33;40.03;;;;;;;11.35;61.13;97707.70;1818202;78;21306;-65
2021/04/29 09:32:35;;;;;;;16.62;13.05;;;;;;;11.57;60.79;97713.09;1818006;79;21002;-61
2021/04/29 09:35:19;;;;;;;12.47;10.75;;;;;;;11.72;60.47;97708.75;1815744;79;20982;-65
2021/04/29 09:37:47;;;;;;;9.70;8.68;;;;;;;11.72;59.72;97709.30;1818011;78;21358;-66
2021/04/29 09:40:29;;;;;;;13.58;9.05;;;;;;;11.57;59.58;97706.37;1821176;78;20966;-63
2021/04/29 09:42:59;;;;;;;11.28;9.00;;;;;;;11.40;60.12;97704.91;1824732;78;20923;-63
2021/04/29 09:45:33;;;;;;;11.70;9.28;;;;;;;11.28;60.50;97691.23;1824743;78;21464;-64
2021/04/29 09:48:11;;;;;;;14.25;9.53;;;;;;;11.15;60.64;97682.66;1824762;78;20919;-68
2021/04/29 09:50:42;;;;;;;12.68;9.50;;;;;;;11.01;61.10;97684.02;1824553;78;21358;-62
2021/04/29 09:53:15;;;;;;;15.65;8.58;;;;;;;10.85;61.52;97683.55;1823998;78;20938;-66
2021/04/29 09:55:48;;;;;;;13.37;9.00;;;;;;;10.73;61.97;97673.08;1825041;78;20982;-62
2021/04/29 09:58:19;;;;;;;15.80;11.30;;;;;;;10.67;62.42;97670.27;1824131;78;21200;-67
2021/04/29 10:00:49;;;;;;;18.45;14.18;;;;;;;10.63;62.73;97671.94;1824034;78;20919;-62
2021/04/29 10:03:19;;;;;;;18.52;12.45;;;;;;;10.65;62.85;97677.78;1824001;78;21367;-61
2021/04/29 10:05:53;;;;;;;14.20;12.13;;;;;;;10.65;62.77;97674.56;1823967;78;20927;-64
2021/04/29 10:08:26;;;;;;;12.95;11.00;;;;;;;10.66;63.09;97671.34;1824196;78;21555;-64
2021/04/29 10:10:56;;;;;;;10.70;9.60;;;;;;;10.69;63.42;97672.87;1823701;78;21128;-60
2021/04/29 10:13:29;;;;;;;16.02;9.68;;;;;;;10.76;63.36;97674.60;1823668;78;21543;-62
2021/04/29 10:15:59;;;;;;;20.37;12.47;;;;;;;10.82;63.45;97681.46;1824024;78;22166;-65
2021/04/29 10:18:28;;;;;;;14.83;11.28;;;;;;;10.87;63.18;97680.02;1822903;78;21025;-64
2021/04/29 10:20:59;;;;;;;14.47;10.63;;;;;;;10.89;63.17;97681.85;1822634;78;21184;-61
2021/04/29 10:23:27;;;;;;;14.73;10.65;;;;;;;10.91;63.11;97674.30;1822875;78;21180;-64
2021/04/29 10:25:58;;;;;;;35.78;24.43;;;;;;;10.93;63.00;97678.02;1824011;78;20975;-61
2021/04/29 10:28:44;;;;;;;27.07;16.50;;;;;;;10.97;62.95;97682.47;1824103;78;22195;-65
2021/04/29 10:31:22;;;;;;;14.23;11.75;;;;;;;10.98;62.98;97674.69;1823957;78;21018;-63
2021/04/29 10:34:03;;;;;;;12.68;10.28;;;;;;;11.04;62.71;97674.59;1824023;78;20915;-63
2021/04/29 10:36:48;;;;;;;19.92;12.03;;;;;;;11.06;62.36;97665.16;1823995;78;20922;-62
2021/04/29 10:39:24;;;;;;;12.50;9.93;;;;;;;11.08;62.49;97663.51;1823980;78;20978;-63
2021/04/29 10:42:06;;;;;;;13.05;9.28;;;;;;;11.12;62.66;97673.86;1824002;78;21363;-65
2021/04/29 10:44:41;;;;;;;14.53;10.32;;;;;;;11.16;62.29;97670.84;1823944;78;20970;-63
2021/04/29 10:47:09;;;;;;;17.82;10.10;;;;;;;11.19;62.35;97672.94;1823986;78;20950;-64
2021/04/29 10:49:42;;;;;;;13.93;10.72;;;;;;;11.25;62.70;97665.02;1823962;78;20924;-64
2021/04/29 10:52:08;;;;;;;11.85;10.18;;;;;;;11.36;62.91;97662.34;1824040;78;20872;-65
2021/04/29 10:54:37;;;;;;;15.25;9.45;;;;;;;11.52;62.63;97653.64;1823969;78;21385;-62
2021/04/29 10:57:08;;;;;;;12.90;9.90;;;;;;;11.65;62.73;97651.47;1769279;78;20931;-63
2021/04/29 10:59:39;;;;;;;13.28;10.65;;;;;;;11.78;62.92;97652.52;1823970;78;21529;-65
2021/04/29 11:02:31;;;;;;;11.53;10.23;;;;;;;11.88;63.87;97645.57;1823985;78;21457;-61
2021/04/29 11:04:59;;;;;;;14.05;10.90;;;;;;;11.98;64.27;97648.01;1824005;78;20922;-62
2021/04/29 11:07:29;;;;;;;16.10;11.15;;;;;;;12.13;63.83;97647.60;1823956;78;21198;-63
2021/04/29 11:10:09;;;;;;;15.10;10.72;;;;;;;12.19;62.59;97645.05;1823893;78;20946;-63
2021/04/29 11:12:49;;;;;;;15.23;10.60;;;;;;;12.18;62.41;97651.50;1824030;78;20994;-64
2021/04/29 11:15:34;;;;;;;16.32;12.55;;;;;;;12.15;62.74;97641.94;1824163;78;20918;-60
2021/04/29 11:18:14;;;;;;;11.48;9.25;;;;;;;12.16;62.55;97650.22;1824114;78;21524;-64
2021/04/29 11:20:48;;;;;;;11.18;9.38;;;;;;;12.17;62.75;97649.94;1819721;78;21385;-63
2021/04/29 11:23:27;;;;;;;9.58;8.50;;;;;;;12.15;62.43;97644.05;1824010;78;20978;-62
2021/04/29 11:26:16;;;;;;;13.13;9.15;;;;;;;12.11;62.83;97645.78;1824078;78;20986;-63
2021/04/29 11:28:44;;;;;;;13.90;9.83;;;;;;;12.05;63.74;97643.00;1823984;78;20970;-65
2021/04/29 11:31:13;;;;;;;18.80;10.10;;;;;;;12.01;64.08;97646.03;1823988;78;20954;-62
2021/04/29 11:33:45;;;;;;;16.00;11.35;;;;;;;12.01;64.21;97631.84;1823946;78;21390;-63
2021/04/29 11:36:20;;;;;;;15.53;11.97;;;;;;;12.01;64.67;97633.18;1823485;77;21033;-61
2021/04/29 11:38:56;;;;;;;15.40;11.45;;;;;;;12.02;65.13;97622.13;1824110;78;21068;-63
2021/04/29 11:41:26;;;;;;;14.50;9.68;;;;;;;12.04;65.21;97617.78;1815620;78;21001;-63
2021/04/29 11:44:05;;;;;;;15.93;10.63;;;;;;;12.03;65.19;97617.02;1812137;79;21112;-64
2021/04/29 11:46:36;;;;;;;20.62;11.97;;;;;;;11.98;65.41;97621.17;1811478;79;21450;-62
2021/04/29 11:49:07;;;;;;;16.15;11.03;;;;;;;11.97;65.91;97616.89;1810794;79;21179;-63
2021/04/29 11:51:51;;;;;;;14.58;11.35;;;;;;;11.99;66.53;97621.39;1811528;78;21539;-64
2021/04/29 11:54:19;;;;;;;13.95;10.63;;;;;;;12.00;66.74;97624.33;1812158;78;20871;-61
2021/04/29 11:56:49;;;;;;;13.60;10.43;;;;;;;12.00;67.03;97618.96;1812163;78;20915;-63
2021/04/29 11:59:17;;;;;;;14.73;9.85;;;;;;;11.99;67.26;97612.54;1812158;79;21412;-63
2021/04/29 12:01:58;;;;;;;11.88;9.55;;;;;;;11.97;67.18;97612.86;1812040;79;20898;-63
2021/04/29 12:04:27;;;;;;;13.28;10.35;;;;;;;11.95;67.45;97605.67;1812168;79;21516;-62
2021/04/29 12:07:02;;;;;;;11.78;10.50;;;;;;;11.99;68.12;97603.95;1811860;79;20998;-62
2021/04/29 12:09:32;;;;;;;18.45;12.30;;;;;;;12.09;68.89;97596.98;1812334;79;21077;-68
2021/04/29 12:12:19;;;;;;;21.30;16.93;;;;;;;12.25;68.79;97586.06;1812168;79;21575;-64
2021/04/29 12:14:53;;;;;;;19.60;16.50;;;;;;;12.45;69.35;97579.89;1811614;79;20942;-63
2021/04/29 12:17:24;;;;;;;19.80;16.62;;;;;;;12.70;69.39;97570.55;1812195;78;21627;-64
2021/04/29 12:19:55;;;;;;;17.52;15.65;;;;;;;12.92;68.92;97569.09;1812184;79;21022;-64
2021/04/29 12:22:25;;;;;;;16.77;15.08;;;;;;;13.11;68.91;97562.64;1812348;78;21029;-67
2021/04/29 12:24:53;;;;;;;15.53;11.63;;;;;;;13.22;67.58;97553.93;1812290;78;22129;-64
2021/04/29 12:27:22;;;;;;;16.12;11.30;;;;;;;13.24;66.11;97554.41;1812217;79;21504;-61
2021/04/29 12:30:04;;;;;;;16.02;10.35;;;;;;;13.26;65.97;97546.04;1812350;79;20930;-62
2021/04/29 12:32:45;;;;;;;13.55;10.32;;;;;;;13.26;65.87;97545.45;1812249;79;21091;-62
2021/04/29 12:35:34;;;;;;;11.28;9.40;;;;;;;13.33;65.46;97544.42;1812704;78;21044;-62
